Weerspreuk van de week. Volgen op Gommarus natte dagen, er volgt een zomer met veel natte dagen.
Onweer van: 18-10-2019 09:00 tot: 12:00 waarschuwing voor: Onweer niveau: Geel info button
Enkele onweersbuien met kans op windstoten van 60-70 km/uur, langs de kust rond 80 km/uur, en mogelijk ook hagel.Kans op blikseminslag, hagel en windstoten.Verkeer en buitenactiviteiten kunnen hinder ondervinden.Mijd open water en open gebied, schuil niet onder bomen.Volg weerberichten en waarschuwingen.


waarschuwing voor Onweer Meer informatie blitzortung!


Regen radar Meer informatie rain snow radar


Bekijk deze sites ook eens:

FPL Automotive (TIP)

Autostekkers.nl (TIP)

Over Luyksgestel

De Kempen, mijn omgeving

BOL.com

Weerstation Noordbergum

Inktweb

Weerstation Hapert

Weerstation Hoogeloon

Weerstation Son&Breugel

Weerstation Castaert

Smartphonehoesjes

Weerstation Tilburg Reeshof

Weerstation Scheulder

Weerverwachting Samos

Samos actueel

Weerwoord (forum)

Griekenlandforum

Vakantie naar Samos

Zomerzon

Canon

Wolven in Nederland



METAR rapporten vliegvelden

   
EBAW - Antwerp
Gewijzigd: 18-10-2019 03:20
Grotendeels bewolkt  
Grotendeels bewolkt  
   Wind: Zuiden 11.1 km/h
Wind: Zuiden 11.1 km/h
Temperatuur: 13°C
Dauwpunt: 12°C
Vochtigheid: 94%
Barometer: 1006 hPa
Bewolking: Grotendeels bewolkt
Zicht: meer dan 10 km
Bewolking: Grotendeels bewolkt 1600 ft,
Grotendeels bewolkt 2900 ft
EBAW 180120Z AUTO 17006KT 9999 // BKN016/// BKN029/// 13/12 Q1006
EBLG - Liège
Gewijzigd: 18-10-2019 03:20
Gedeeltelijk bewolkt  
Gedeeltelijk bewolkt  
   Wind: Zuiden 16.7 km/h
Wind: Zuiden 16.7 km/h
Temperatuur: 13°C
Dauwpunt: 11°C
Vochtigheid: 88%
Barometer: 1008 hPa
Bewolking: Gedeeltelijk bewolkt
Zicht: meer dan 10 km
Bewolking: Gedeeltelijk bewolkt 3200 ft
EBLG 180120Z 17009KT 9999 SCT032 13/11 Q1008 NOSIG
EBCV - Mons/Bergen
Gewijzigd: 18-10-2019 03:25
Grotendeels bewolkt  
Grotendeels bewolkt  
   Wind: ZZW 20.4 km/h
Wind: ZZW 20.4 km/h
Temperatuur: 14°C
Dauwpunt: 12°C
Vochtigheid: 88%
Barometer: 1006 hPa
Bewolking: Grotendeels bewolkt
Zicht: meer dan 10 km
Bewolking: Gedeeltelijk bewolkt 5900 ft,
Grotendeels bewolkt 10000 ft,
Grotendeels bewolkt 18000 ft
EBCV 180125Z AUTO 20011KT 9999 SCT059/// BKN100/// BKN180/// 14/12 Q1006 BLU
EHBK - Maastricht
Gewijzigd: 18-10-2019 03:25
Gedeeltelijk bewolkt  
Gedeeltelijk bewolkt  
   Wind: Zuiden 16.7 km/h
Wind: Zuiden 16.7 km/h
Temperatuur: 13°C
Dauwpunt: 11°C
Vochtigheid: 88%
Barometer: 1008 hPa
Bewolking: Gedeeltelijk bewolkt
Zicht: meer dan 10 km
Bewolking: Licht bewolkt 1500 ft,
Gedeeltelijk bewolkt 3700 ft
EHBK 180125Z AUTO 19009KT 9999 FEW015CB SCT037 13/11 Q1008
ELLX - Luxemburg
Gewijzigd: 18-10-2019 03:20
Bewolking  
Bewolking  
   Wind: Zuiden 13 km/h
Wind: Zuiden 13 km/h
Temperatuur: 12°C
Dauwpunt: 12°C
Vochtigheid: 100%
Barometer: 1011 hPa
Bewolking: Bewolking
Zicht: 7 km
Bewolking: Licht bewolkt 200 ft,
Grotendeels bewolkt 300 ft,
Bewolking 400 ft
ELLX 180120Z AUTO 18007KT 150V210 7000 FEW002/// BKN003/// OVC004/// 12/12 Q1011 NOSIG
EBOS - Oostende
Gewijzigd: 18-10-2019 03:20
Helder  
Helder  
   Wind: Zuiden 14.8 km/h
Wind: Zuiden 14.8 km/h
Temperatuur: 12°C
Dauwpunt: 10°C
Vochtigheid: 88%
Barometer: 1005 hPa
Zicht: meer dan 10 km
Bewolking: Helder
EBOS 180120Z 18008KT CAVOK 12/10 Q1005 NOSIG

Script ontwikkeld door  Saratoga-weather.org Aangepast voor de template door  Weerstation Leuven

U vindt ons ook hier:

Het Weer Aktueel

UK Metoffice

European Weather Network

Weather Underground

AWEKAS



weer